sensor_id;sensor_type;location;lat;lon;timestamp;P1;durP1;ratioP1;P2;durP2;ratioP2
11962;SDS011;62678;52.130;5.584;2023-04-15T00:00:09;11.23;;;7.05;;
11962;SDS011;62678;52.130;5.584;2023-04-15T00:02:36;11.80;;;7.03;;
11962;SDS011;62678;52.130;5.584;2023-04-15T00:05:05;10.15;;;6.47;;
11962;SDS011;62678;52.130;5.584;2023-04-15T00:07:32;12.30;;;7.07;;
11962;SDS011;62678;52.130;5.584;2023-04-15T00:09:59;10.85;;;6.70;;
11962;SDS011;62678;52.130;5.584;2023-04-15T00:12:28;13.23;;;7.28;;
11962;SDS011;62678;52.130;5.584;2023-04-15T00:14:55;12.13;;;7.22;;
11962;SDS011;62678;52.130;5.584;2023-04-15T00:17:22;10.48;;;6.75;;
11962;SDS011;62678;52.130;5.584;2023-04-15T00:19:49;11.32;;;7.40;;
11962;SDS011;62678;52.130;5.584;2023-04-15T00:22:18;13.35;;;7.32;;
11962;SDS011;62678;52.130;5.584;2023-04-15T00:24:44;10.55;;;7.13;;
11962;SDS011;62678;52.130;5.584;2023-04-15T00:27:11;12.13;;;7.50;;
11962;SDS011;62678;52.130;5.584;2023-04-15T00:29:38;12.48;;;7.22;;
11962;SDS011;62678;52.130;5.584;2023-04-15T00:32:05;13.63;;;7.25;;
11962;SDS011;62678;52.130;5.584;2023-04-15T00:34:33;14.07;;;7.75;;
11962;SDS011;62678;52.130;5.584;2023-04-15T00:37:00;12.88;;;7.63;;
11962;SDS011;62678;52.130;5.584;2023-04-15T00:39:28;12.10;;;7.70;;
11962;SDS011;62678;52.130;5.584;2023-04-15T00:41:54;10.00;;;6.65;;
11962;SDS011;62678;52.130;5.584;2023-04-15T00:44:22;10.82;;;6.85;;
11962;SDS011;62678;52.130;5.584;2023-04-15T00:46:50;10.93;;;7.05;;
11962;SDS011;62678;52.130;5.584;2023-04-15T00:49:18;12.35;;;7.45;;
11962;SDS011;62678;52.130;5.584;2023-04-15T00:51:44;11.27;;;7.43;;
11962;SDS011;62678;52.130;5.584;2023-04-15T00:54:11;10.75;;;7.00;;
11962;SDS011;62678;52.130;5.584;2023-04-15T00:56:40;17.38;;;7.45;;
11962;SDS011;62678;52.130;5.584;2023-04-15T00:59:07;12.10;;;7.38;;
11962;SDS011;62678;52.130;5.584;2023-04-15T01:01:35;12.57;;;7.90;;
11962;SDS011;62678;52.130;5.584;2023-04-15T01:04:03;11.85;;;7.65;;
11962;SDS011;62678;52.130;5.584;2023-04-15T01:06:31;12.50;;;7.50;;
11962;SDS011;62678;52.130;5.584;2023-04-15T01:08:58;14.60;;;7.93;;
11962;SDS011;62678;52.130;5.584;2023-04-15T01:11:25;12.98;;;7.75;;
11962;SDS011;62678;52.130;5.584;2023-04-15T01:13:54;10.70;;;7.35;;
11962;SDS011;62678;52.130;5.584;2023-04-15T01:16:21;14.50;;;7.78;;
11962;SDS011;62678;52.130;5.584;2023-04-15T01:18:49;12.63;;;7.80;;
11962;SDS011;62678;52.130;5.584;2023-04-15T01:21:16;14.45;;;8.18;;
11962;SDS011;62678;52.130;5.584;2023-04-15T01:23:44;11.38;;;7.95;;
11962;SDS011;62678;52.130;5.584;2023-04-15T01:26:14;13.13;;;8.00;;
11962;SDS011;62678;52.130;5.584;2023-04-15T01:28:41;12.73;;;7.53;;
11962;SDS011;62678;52.130;5.584;2023-04-15T01:31:10;10.10;;;7.57;;
11962;SDS011;62678;52.130;5.584;2023-04-15T01:33:39;14.88;;;7.88;;
11962;SDS011;62678;52.130;5.584;2023-04-15T01:36:08;11.63;;;7.60;;
11962;SDS011;62678;52.130;5.584;2023-04-15T01:38:35;12.35;;;7.88;;
11962;SDS011;62678;52.130;5.584;2023-04-15T01:41:03;11.93;;;7.85;;
11962;SDS011;62678;52.130;5.584;2023-04-15T01:43:33;13.35;;;8.80;;
11962;SDS011;62678;52.130;5.584;2023-04-15T01:46:00;13.57;;;8.07;;
11962;SDS011;62678;52.130;5.584;2023-04-15T01:48:26;12.27;;;8.43;;
11962;SDS011;62678;52.130;5.584;2023-04-15T01:50:53;10.75;;;7.25;;
11962;SDS011;62678;52.130;5.584;2023-04-15T01:53:21;12.15;;;8.20;;
11962;SDS011;62678;52.130;5.584;2023-04-15T01:55:48;14.68;;;7.78;;
11962;SDS011;62678;52.130;5.584;2023-04-15T01:58:16;11.80;;;7.72;;
11962;SDS011;62678;52.130;5.584;2023-04-15T02:00:44;14.20;;;7.97;;
11962;SDS011;62678;52.130;5.584;2023-04-15T02:03:11;12.95;;;7.72;;
11962;SDS011;62678;52.130;5.584;2023-04-15T02:05:38;12.10;;;8.15;;
11962;SDS011;62678;52.130;5.584;2023-04-15T02:08:04;12.30;;;8.32;;
11962;SDS011;62678;52.130;5.584;2023-04-15T02:10:31;14.85;;;8.05;;
11962;SDS011;62678;52.130;5.584;2023-04-15T02:12:58;13.70;;;8.45;;
11962;SDS011;62678;52.130;5.584;2023-04-15T02:15:25;12.63;;;7.88;;
11962;SDS011;62678;52.130;5.584;2023-04-15T02:17:53;11.70;;;8.10;;
11962;SDS011;62678;52.130;5.584;2023-04-15T02:20:20;16.25;;;8.18;;
11962;SDS011;62678;52.130;5.584;2023-04-15T02:22:47;16.45;;;8.00;;
11962;SDS011;62678;52.130;5.584;2023-04-15T02:25:14;17.40;;;8.27;;
11962;SDS011;62678;52.130;5.584;2023-04-15T02:27:42;11.25;;;7.50;;
11962;SDS011;62678;52.130;5.584;2023-04-15T02:30:10;13.15;;;8.20;;
11962;SDS011;62678;52.130;5.584;2023-04-15T02:32:37;12.60;;;7.72;;
11962;SDS011;62678;52.130;5.584;2023-04-15T02:35:09;13.95;;;8.18;;
11962;SDS011;62678;52.130;5.584;2023-04-15T02:37:36;12.90;;;7.97;;
11962;SDS011;62678;52.130;5.584;2023-04-15T02:40:07;15.10;;;8.60;;
11962;SDS011;62678;52.130;5.584;2023-04-15T02:42:36;14.93;;;8.65;;
11962;SDS011;62678;52.130;5.584;2023-04-15T02:45:03;12.00;;;8.05;;
11962;SDS011;62678;52.130;5.584;2023-04-15T02:47:31;11.02;;;7.80;;
11962;SDS011;62678;52.130;5.584;2023-04-15T02:49:58;9.30;;;7.32;;
11962;SDS011;62678;52.130;5.584;2023-04-15T02:52:27;14.23;;;7.80;;
11962;SDS011;62678;52.130;5.584;2023-04-15T02:54:54;11.80;;;7.63;;
11962;SDS011;62678;52.130;5.584;2023-04-15T02:57:24;11.05;;;7.97;;
11962;SDS011;62678;52.130;5.584;2023-04-15T02:59:51;12.07;;;7.55;;
11962;SDS011;62678;52.130;5.584;2023-04-15T03:02:18;11.63;;;8.10;;
11962;SDS011;62678;52.130;5.584;2023-04-15T03:04:45;13.98;;;8.10;;
11962;SDS011;62678;52.130;5.584;2023-04-15T03:07:12;12.43;;;7.90;;
11962;SDS011;62678;52.130;5.584;2023-04-15T03:09:40;10.52;;;7.72;;
11962;SDS011;62678;52.130;5.584;2023-04-15T03:12:06;11.73;;;7.90;;
11962;SDS011;62678;52.130;5.584;2023-04-15T03:14:33;12.70;;;8.30;;
11962;SDS011;62678;52.130;5.584;2023-04-15T03:17:00;12.38;;;8.88;;
11962;SDS011;62678;52.130;5.584;2023-04-15T03:19:27;12.52;;;7.93;;
11962;SDS011;62678;52.130;5.584;2023-04-15T03:21:53;13.20;;;8.15;;
11962;SDS011;62678;52.130;5.584;2023-04-15T03:24:21;14.55;;;9.20;;
11962;SDS011;62678;52.130;5.584;2023-04-15T03:26:50;15.82;;;9.25;;
11962;SDS011;62678;52.130;5.584;2023-04-15T03:29:16;13.38;;;8.75;;
11962;SDS011;62678;52.130;5.584;2023-04-15T03:31:43;15.10;;;9.02;;
11962;SDS011;62678;52.130;5.584;2023-04-15T03:34:10;14.68;;;9.10;;
11962;SDS011;62678;52.130;5.584;2023-04-15T03:36:37;15.00;;;8.98;;
11962;SDS011;62678;52.130;5.584;2023-04-15T03:39:04;13.35;;;9.15;;
11962;SDS011;62678;52.130;5.584;2023-04-15T03:41:30;14.90;;;9.27;;
11962;SDS011;62678;52.130;5.584;2023-04-15T03:43:59;18.98;;;10.23;;
11962;SDS011;62678;52.130;5.584;2023-04-15T03:46:26;13.10;;;8.82;;
11962;SDS011;62678;52.130;5.584;2023-04-15T03:48:52;12.43;;;9.18;;
11962;SDS011;62678;52.130;5.584;2023-04-15T03:51:19;17.02;;;9.90;;
11962;SDS011;62678;52.130;5.584;2023-04-15T03:53:46;18.42;;;10.68;;
11962;SDS011;62678;52.130;5.584;2023-04-15T03:56:13;14.88;;;10.40;;
11962;SDS011;62678;52.130;5.584;2023-04-15T03:58:40;17.25;;;10.80;;
11962;SDS011;62678;52.130;5.584;2023-04-15T04:01:08;13.93;;;10.52;;
11962;SDS011;62678;52.130;5.584;2023-04-15T04:03:35;17.42;;;10.30;;
11962;SDS011;62678;52.130;5.584;2023-04-15T04:06:02;16.30;;;10.27;;
11962;SDS011;62678;52.130;5.584;2023-04-15T04:08:29;15.70;;;10.63;;
11962;SDS011;62678;52.130;5.584;2023-04-15T04:10:56;14.93;;;10.23;;
11962;SDS011;62678;52.130;5.584;2023-04-15T04:13:23;16.40;;;10.07;;
11962;SDS011;62678;52.130;5.584;2023-04-15T04:15:49;15.82;;;10.05;;
11962;SDS011;62678;52.130;5.584;2023-04-15T04:18:18;17.00;;;10.27;;
11962;SDS011;62678;52.130;5.584;2023-04-15T04:20:44;14.75;;;10.80;;
11962;SDS011;62678;52.130;5.584;2023-04-15T04:23:11;16.38;;;10.48;;
11962;SDS011;62678;52.130;5.584;2023-04-15T04:25:38;15.13;;;10.85;;
11962;SDS011;62678;52.130;5.584;2023-04-15T04:28:05;14.05;;;10.32;;
11962;SDS011;62678;52.130;5.584;2023-04-15T04:30:32;15.45;;;11.05;;
11962;SDS011;62678;52.130;5.584;2023-04-15T04:33:00;16.48;;;11.10;;
11962;SDS011;62678;52.130;5.584;2023-04-15T04:35:28;14.40;;;11.00;;
11962;SDS011;62678;52.130;5.584;2023-04-15T04:37:57;16.13;;;10.85;;
11962;SDS011;62678;52.130;5.584;2023-04-15T04:40:24;15.60;;;11.00;;
11962;SDS011;62678;52.130;5.584;2023-04-15T04:42:51;16.13;;;10.50;;
11962;SDS011;62678;52.130;5.584;2023-04-15T04:45:18;15.05;;;10.80;;
11962;SDS011;62678;52.130;5.584;2023-04-15T04:47:45;17.05;;;10.80;;
11962;SDS011;62678;52.130;5.584;2023-04-15T04:50:12;16.25;;;11.32;;
11962;SDS011;62678;52.130;5.584;2023-04-15T04:52:40;15.70;;;10.35;;
11962;SDS011;62678;52.130;5.584;2023-04-15T04:55:07;16.67;;;11.13;;
11962;SDS011;62678;52.130;5.584;2023-04-15T04:57:34;15.48;;;10.77;;
11962;SDS011;62678;52.130;5.584;2023-04-15T05:00:01;17.63;;;11.00;;
11962;SDS011;62678;52.130;5.584;2023-04-15T05:02:29;14.52;;;11.18;;
11962;SDS011;62678;52.130;5.584;2023-04-15T05:04:56;15.00;;;10.38;;
11962;SDS011;62678;52.130;5.584;2023-04-15T05:07:23;17.02;;;10.98;;
11962;SDS011;62678;52.130;5.584;2023-04-15T05:09:53;15.20;;;11.52;;
11962;SDS011;62678;52.130;5.584;2023-04-15T05:12:20;14.75;;;10.43;;
11962;SDS011;62678;52.130;5.584;2023-04-15T05:14:47;14.65;;;11.27;;
11962;SDS011;62678;52.130;5.584;2023-04-15T05:17:14;19.33;;;11.10;;
11962;SDS011;62678;52.130;5.584;2023-04-15T05:19:41;16.02;;;10.93;;
11962;SDS011;62678;52.130;5.584;2023-04-15T05:22:08;17.52;;;11.40;;
11962;SDS011;62678;52.130;5.584;2023-04-15T05:24:34;16.52;;;11.48;;
11962;SDS011;62678;52.130;5.584;2023-04-15T05:27:03;12.98;;;10.65;;
11962;SDS011;62678;52.130;5.584;2023-04-15T05:29:30;13.93;;;10.93;;
11962;SDS011;62678;52.130;5.584;2023-04-15T05:31:56;16.27;;;10.98;;
11962;SDS011;62678;52.130;5.584;2023-04-15T05:34:23;16.85;;;11.82;;
11962;SDS011;62678;52.130;5.584;2023-04-15T05:36:50;15.57;;;11.45;;
11962;SDS011;62678;52.130;5.584;2023-04-15T05:39:17;14.07;;;11.32;;
11962;SDS011;62678;52.130;5.584;2023-04-15T05:41:44;14.75;;;11.38;;
11962;SDS011;62678;52.130;5.584;2023-04-15T05:44:13;14.43;;;11.20;;
11962;SDS011;62678;52.130;5.584;2023-04-15T05:46:40;16.30;;;11.77;;
11962;SDS011;62678;52.130;5.584;2023-04-15T05:49:07;17.15;;;11.68;;
11962;SDS011;62678;52.130;5.584;2023-04-15T05:51:34;18.02;;;12.23;;
11962;SDS011;62678;52.130;5.584;2023-04-15T05:54:01;17.25;;;12.18;;
11962;SDS011;62678;52.130;5.584;2023-04-15T05:56:27;16.45;;;12.18;;
11962;SDS011;62678;52.130;5.584;2023-04-15T05:58:54;21.15;;;13.65;;
11962;SDS011;62678;52.130;5.584;2023-04-15T06:01:23;18.63;;;12.57;;
11962;SDS011;62678;52.130;5.584;2023-04-15T06:03:50;17.48;;;12.82;;
11962;SDS011;62678;52.130;5.584;2023-04-15T06:06:17;20.70;;;13.40;;
11962;SDS011;62678;52.130;5.584;2023-04-15T06:08:44;17.80;;;12.82;;
11962;SDS011;62678;52.130;5.584;2023-04-15T06:11:11;19.30;;;13.55;;
11962;SDS011;62678;52.130;5.584;2023-04-15T06:13:38;21.92;;;13.15;;
11962;SDS011;62678;52.130;5.584;2023-04-15T06:16:05;18.10;;;14.07;;
11962;SDS011;62678;52.130;5.584;2023-04-15T06:18:33;18.02;;;13.07;;
11962;SDS011;62678;52.130;5.584;2023-04-15T06:21:00;16.73;;;12.68;;
11962;SDS011;62678;52.130;5.584;2023-04-15T06:23:27;17.50;;;13.80;;
11962;SDS011;62678;52.130;5.584;2023-04-15T06:25:54;17.52;;;12.50;;
11962;SDS011;62678;52.130;5.584;2023-04-15T06:28:21;17.52;;;12.30;;
11962;SDS011;62678;52.130;5.584;2023-04-15T06:30:48;17.27;;;12.40;;
11962;SDS011;62678;52.130;5.584;2023-04-15T06:33:14;15.13;;;11.90;;
11962;SDS011;62678;52.130;5.584;2023-04-15T06:35:43;15.55;;;11.82;;
11962;SDS011;62678;52.130;5.584;2023-04-15T06:38:10;16.75;;;12.25;;
11962;SDS011;62678;52.130;5.584;2023-04-15T06:40:36;17.05;;;12.55;;
11962;SDS011;62678;52.130;5.584;2023-04-15T06:43:03;16.80;;;12.82;;
11962;SDS011;62678;52.130;5.584;2023-04-15T06:45:30;19.95;;;12.45;;
11962;SDS011;62678;52.130;5.584;2023-04-15T06:47:57;17.02;;;13.07;;
11962;SDS011;62678;52.130;5.584;2023-04-15T06:50:24;19.38;;;14.40;;
11962;SDS011;62678;52.130;5.584;2023-04-15T06:52:52;17.67;;;12.75;;
11962;SDS011;62678;52.130;5.584;2023-04-15T06:55:19;15.23;;;12.13;;
11962;SDS011;62678;52.130;5.584;2023-04-15T06:57:46;16.30;;;12.27;;
11962;SDS011;62678;52.130;5.584;2023-04-15T07:00:13;16.00;;;12.43;;
11962;SDS011;62678;52.130;5.584;2023-04-15T07:02:40;16.52;;;11.68;;
11962;SDS011;62678;52.130;5.584;2023-04-15T07:05:07;16.27;;;12.35;;
11962;SDS011;62678;52.130;5.584;2023-04-15T07:07:34;16.52;;;11.90;;
11962;SDS011;62678;52.130;5.584;2023-04-15T07:10:03;15.65;;;11.88;;
11962;SDS011;62678;52.130;5.584;2023-04-15T07:12:30;17.60;;;12.13;;
11962;SDS011;62678;52.130;5.584;2023-04-15T07:14:57;14.95;;;11.68;;
11962;SDS011;62678;52.130;5.584;2023-04-15T07:17:24;16.63;;;11.77;;
11962;SDS011;62678;52.130;5.584;2023-04-15T07:19:51;17.00;;;12.20;;
11962;SDS011;62678;52.130;5.584;2023-04-15T07:22:17;17.35;;;11.95;;
11962;SDS011;62678;52.130;5.584;2023-04-15T07:24:45;16.27;;;11.65;;
11962;SDS011;62678;52.130;5.584;2023-04-15T07:27:14;15.45;;;10.55;;
11962;SDS011;62678;52.130;5.584;2023-04-15T07:29:41;14.63;;;11.18;;
11962;SDS011;62678;52.130;5.584;2023-04-15T07:32:08;14.70;;;10.13;;
11962;SDS011;62678;52.130;5.584;2023-04-15T07:34:35;12.77;;;9.35;;
11962;SDS011;62678;52.130;5.584;2023-04-15T07:37:02;11.48;;;8.45;;
11962;SDS011;62678;52.130;5.584;2023-04-15T07:39:29;9.77;;;8.30;;
11962;SDS011;62678;52.130;5.584;2023-04-15T07:41:56;11.57;;;8.07;;
11962;SDS011;62678;52.130;5.584;2023-04-15T07:44:25;8.02;;;6.38;;
11962;SDS011;62678;52.130;5.584;2023-04-15T07:46:52;10.25;;;7.00;;
11962;SDS011;62678;52.130;5.584;2023-04-15T07:49:19;9.63;;;6.97;;
11962;SDS011;62678;52.130;5.584;2023-04-15T07:51:46;12.18;;;7.82;;
11962;SDS011;62678;52.130;5.584;2023-04-15T07:54:13;9.55;;;7.78;;
11962;SDS011;62678;52.130;5.584;2023-04-15T07:56:40;10.88;;;7.78;;
11962;SDS011;62678;52.130;5.584;2023-04-15T07:59:07;10.82;;;7.43;;
11962;SDS011;62678;52.130;5.584;2023-04-15T08:01:35;10.55;;;7.85;;
11962;SDS011;62678;52.130;5.584;2023-04-15T08:04:03;10.52;;;8.13;;
11962;SDS011;62678;52.130;5.584;2023-04-15T08:06:30;10.10;;;7.50;;
11962;SDS011;62678;52.130;5.584;2023-04-15T08:08:57;10.70;;;7.93;;
11962;SDS011;62678;52.130;5.584;2023-04-15T08:11:24;10.23;;;7.38;;
11962;SDS011;62678;52.130;5.584;2023-04-15T08:13:51;9.57;;;7.50;;
11962;SDS011;62678;52.130;5.584;2023-04-15T08:16:19;9.38;;;6.30;;
11962;SDS011;62678;52.130;5.584;2023-04-15T08:18:48;9.27;;;6.75;;
11962;SDS011;62678;52.130;5.584;2023-04-15T08:21:16;7.93;;;5.95;;
11962;SDS011;62678;52.130;5.584;2023-04-15T08:23:44;7.57;;;6.03;;
11962;SDS011;62678;52.130;5.584;2023-04-15T08:26:13;7.95;;;6.38;;
11962;SDS011;62678;52.130;5.584;2023-04-15T08:28:40;6.63;;;5.57;;
11962;SDS011;62678;52.130;5.584;2023-04-15T08:31:08;7.35;;;5.88;;
11962;SDS011;62678;52.130;5.584;2023-04-15T08:33:35;7.63;;;5.45;;
11962;SDS011;62678;52.130;5.584;2023-04-15T08:36:03;7.50;;;5.70;;
11962;SDS011;62678;52.130;5.584;2023-04-15T08:38:31;5.65;;;5.07;;
11962;SDS011;62678;52.130;5.584;2023-04-15T08:40:59;6.70;;;4.80;;
11962;SDS011;62678;52.130;5.584;2023-04-15T08:43:27;5.30;;;4.80;;
11962;SDS011;62678;52.130;5.584;2023-04-15T08:45:59;7.07;;;5.30;;
11962;SDS011;62678;52.130;5.584;2023-04-15T08:48:27;5.72;;;4.85;;
11962;SDS011;62678;52.130;5.584;2023-04-15T08:50:57;5.57;;;4.95;;
11962;SDS011;62678;52.130;5.584;2023-04-15T08:53:27;5.93;;;3.92;;
11962;SDS011;62678;52.130;5.584;2023-04-15T08:55:55;4.25;;;3.85;;
11962;SDS011;62678;52.130;5.584;2023-04-15T08:58:23;5.65;;;4.30;;
11962;SDS011;62678;52.130;5.584;2023-04-15T09:00:50;7.75;;;4.53;;
11962;SDS011;62678;52.130;5.584;2023-04-15T09:03:17;4.82;;;4.15;;
11962;SDS011;62678;52.130;5.584;2023-04-15T09:05:47;5.13;;;4.18;;
11962;SDS011;62678;52.130;5.584;2023-04-15T09:08:16;5.38;;;4.22;;
11962;SDS011;62678;52.130;5.584;2023-04-15T09:10:44;4.93;;;3.92;;
11962;SDS011;62678;52.130;5.584;2023-04-15T09:13:11;4.07;;;3.63;;
11962;SDS011;62678;52.130;5.584;2023-04-15T09:15:39;4.00;;;3.67;;
11962;SDS011;62678;52.130;5.584;2023-04-15T09:18:05;5.20;;;3.80;;
11962;SDS011;62678;52.130;5.584;2023-04-15T09:20:37;4.40;;;3.88;;
11962;SDS011;62678;52.130;5.584;2023-04-15T09:23:10;4.40;;;3.72;;
11962;SDS011;62678;52.130;5.584;2023-04-15T09:25:38;5.20;;;3.78;;
11962;SDS011;62678;52.130;5.584;2023-04-15T09:28:07;5.03;;;3.70;;
11962;SDS011;62678;52.130;5.584;2023-04-15T09:30:35;4.15;;;3.50;;
11962;SDS011;62678;52.130;5.584;2023-04-15T09:33:03;5.53;;;3.40;;
11962;SDS011;62678;52.130;5.584;2023-04-15T09:35:32;4.47;;;3.22;;
11962;SDS011;62678;52.130;5.584;2023-04-15T09:38:01;3.60;;;2.80;;
11962;SDS011;62678;52.130;5.584;2023-04-15T09:40:30;2.70;;;2.03;;
11962;SDS011;62678;52.130;5.584;2023-04-15T09:42:58;4.32;;;2.33;;
11962;SDS011;62678;52.130;5.584;2023-04-15T09:45:27;2.67;;;1.90;;
11962;SDS011;62678;52.130;5.584;2023-04-15T09:47:55;4.20;;;2.30;;
11962;SDS011;62678;52.130;5.584;2023-04-15T09:50:23;1.65;;;1.52;;
11962;SDS011;62678;52.130;5.584;2023-04-15T09:52:53;2.95;;;1.92;;
11962;SDS011;62678;52.130;5.584;2023-04-15T09:55:20;3.20;;;1.80;;
11962;SDS011;62678;52.130;5.584;2023-04-15T09:57:47;2.50;;;1.95;;
11962;SDS011;62678;52.130;5.584;2023-04-15T10:00:14;2.88;;;2.15;;
11962;SDS011;62678;52.130;5.584;2023-04-15T10:02:43;2.55;;;2.10;;
11962;SDS011;62678;52.130;5.584;2023-04-15T10:05:12;2.60;;;2.30;;
11962;SDS011;62678;52.130;5.584;2023-04-15T10:07:40;2.42;;;2.00;;
11962;SDS011;62678;52.130;5.584;2023-04-15T10:10:08;3.38;;;2.75;;
11962;SDS011;62678;52.130;5.584;2023-04-15T10:12:36;2.63;;;2.40;;
11962;SDS011;62678;52.130;5.584;2023-04-15T10:15:06;3.17;;;2.85;;
11962;SDS011;62678;52.130;5.584;2023-04-15T10:17:44;3.92;;;3.20;;
11962;SDS011;62678;52.130;5.584;2023-04-15T10:20:13;4.40;;;2.80;;
11962;SDS011;62678;52.130;5.584;2023-04-15T10:22:42;5.32;;;3.70;;
11962;SDS011;62678;52.130;5.584;2023-04-15T10:25:11;4.03;;;3.60;;
11962;SDS011;62678;52.130;5.584;2023-04-15T10:27:40;6.03;;;3.75;;
11962;SDS011;62678;52.130;5.584;2023-04-15T10:30:08;4.35;;;3.60;;
11962;SDS011;62678;52.130;5.584;2023-04-15T10:32:35;3.97;;;3.58;;
11962;SDS011;62678;52.130;5.584;2023-04-15T10:35:05;6.43;;;3.20;;
11962;SDS011;62678;52.130;5.584;2023-04-15T10:37:34;4.28;;;3.15;;
11962;SDS011;62678;52.130;5.584;2023-04-15T10:42:51;6.50;;;3.60;;
11962;SDS011;62678;52.130;5.584;2023-04-15T10:45:18;4.63;;;3.33;;
11962;SDS011;62678;52.130;5.584;2023-04-15T10:47:45;3.95;;;3.08;;
11962;SDS011;62678;52.130;5.584;2023-04-15T10:50:20;4.05;;;3.35;;
11962;SDS011;62678;52.130;5.584;2023-04-15T10:52:49;4.75;;;3.38;;
11962;SDS011;62678;52.130;5.584;2023-04-15T10:55:18;3.97;;;3.22;;
11962;SDS011;62678;52.130;5.584;2023-04-15T10:57:46;4.20;;;3.33;;
11962;SDS011;62678;52.130;5.584;2023-04-15T11:00:17;3.97;;;3.10;;
11962;SDS011;62678;52.130;5.584;2023-04-15T11:02:47;4.47;;;3.40;;
11962;SDS011;62678;52.130;5.584;2023-04-15T11:05:17;3.75;;;2.90;;
11962;SDS011;62678;52.130;5.584;2023-04-15T11:07:50;3.05;;;2.75;;
11962;SDS011;62678;52.130;5.584;2023-04-15T11:13:20;6.30;;;2.95;;
11962;SDS011;62678;52.130;5.584;2023-04-15T11:15:49;4.18;;;3.10;;
11962;SDS011;62678;52.130;5.584;2023-04-15T11:18:17;5.25;;;2.60;;
11962;SDS011;62678;52.130;5.584;2023-04-15T11:20:48;3.45;;;3.00;;
11962;SDS011;62678;52.130;5.584;2023-04-15T11:23:16;3.92;;;3.10;;
11962;SDS011;62678;52.130;5.584;2023-04-15T11:25:44;4.28;;;2.97;;
11962;SDS011;62678;52.130;5.584;2023-04-15T11:28:12;5.03;;;3.05;;
11962;SDS011;62678;52.130;5.584;2023-04-15T11:30:39;3.75;;;2.25;;
11962;SDS011;62678;52.130;5.584;2023-04-15T11:33:08;4.57;;;3.15;;
11962;SDS011;62678;52.130;5.584;2023-04-15T11:35:38;4.03;;;2.65;;
11962;SDS011;62678;52.130;5.584;2023-04-15T11:38:08;5.50;;;2.97;;
11962;SDS011;62678;52.130;5.584;2023-04-15T11:40:38;5.22;;;3.15;;
11962;SDS011;62678;52.130;5.584;2023-04-15T11:43:06;5.40;;;3.15;;
11962;SDS011;62678;52.130;5.584;2023-04-15T11:45:34;4.22;;;2.78;;
11962;SDS011;62678;52.130;5.584;2023-04-15T11:48:05;4.15;;;2.78;;
11962;SDS011;62678;52.130;5.584;2023-04-15T11:50:34;2.55;;;2.13;;
11962;SDS011;62678;52.130;5.584;2023-04-15T11:53:02;3.33;;;2.50;;
11962;SDS011;62678;52.130;5.584;2023-04-15T11:55:32;3.60;;;2.85;;
11962;SDS011;62678;52.130;5.584;2023-04-15T11:58:08;4.43;;;2.80;;
11962;SDS011;62678;52.130;5.584;2023-04-15T12:00:37;4.25;;;2.95;;
11962;SDS011;62678;52.130;5.584;2023-04-15T12:03:14;3.30;;;2.65;;
11962;SDS011;62678;52.130;5.584;2023-04-15T12:06:06;4.03;;;2.65;;
11962;SDS011;62678;52.130;5.584;2023-04-15T12:08:47;5.80;;;2.90;;
11962;SDS011;62678;52.130;5.584;2023-04-15T12:11:35;3.17;;;2.20;;
11962;SDS011;62678;52.130;5.584;2023-04-15T12:14:19;4.25;;;2.55;;
11962;SDS011;62678;52.130;5.584;2023-04-15T12:16:49;3.35;;;2.45;;
11962;SDS011;62678;52.130;5.584;2023-04-15T12:19:21;3.15;;;2.10;;
11962;SDS011;62678;52.130;5.584;2023-04-15T12:21:50;3.63;;;1.70;;
11962;SDS011;62678;52.130;5.584;2023-04-15T12:24:19;3.05;;;1.77;;
11962;SDS011;62678;52.130;5.584;2023-04-15T12:26:49;3.70;;;1.90;;
11962;SDS011;62678;52.130;5.584;2023-04-15T12:29:17;2.15;;;1.50;;
11962;SDS011;62678;52.130;5.584;2023-04-15T12:31:46;2.65;;;1.65;;
11962;SDS011;62678;52.130;5.584;2023-04-15T12:34:14;2.83;;;1.52;;
11962;SDS011;62678;52.130;5.584;2023-04-15T12:36:42;3.03;;;1.80;;
11962;SDS011;62678;52.130;5.584;2023-04-15T12:39:09;2.33;;;1.77;;
11962;SDS011;62678;52.130;5.584;2023-04-15T12:41:36;3.70;;;1.60;;
11962;SDS011;62678;52.130;5.584;2023-04-15T12:44:04;2.97;;;1.58;;
11962;SDS011;62678;52.130;5.584;2023-04-15T12:46:31;2.95;;;1.45;;
11962;SDS011;62678;52.130;5.584;2023-04-15T12:48:57;3.50;;;1.63;;
11962;SDS011;62678;52.130;5.584;2023-04-15T12:51:24;2.92;;;1.50;;
11962;SDS011;62678;52.130;5.584;2023-04-15T12:53:52;2.35;;;1.45;;
11962;SDS011;62678;52.130;5.584;2023-04-15T12:56:19;3.05;;;1.50;;
11962;SDS011;62678;52.130;5.584;2023-04-15T12:58:46;4.80;;;1.55;;
11962;SDS011;62678;52.130;5.584;2023-04-15T13:01:14;1.52;;;1.40;;
11962;SDS011;62678;52.130;5.584;2023-04-15T13:03:41;1.90;;;1.50;;
11962;SDS011;62678;52.130;5.584;2023-04-15T13:06:08;1.90;;;1.58;;
11962;SDS011;62678;52.130;5.584;2023-04-15T13:08:35;4.35;;;2.17;;
11962;SDS011;62678;52.130;5.584;2023-04-15T13:11:02;2.58;;;1.65;;
11962;SDS011;62678;52.130;5.584;2023-04-15T13:13:29;2.28;;;1.58;;
11962;SDS011;62678;52.130;5.584;2023-04-15T13:15:57;5.65;;;1.60;;
11962;SDS011;62678;52.130;5.584;2023-04-15T13:18:25;2.50;;;1.70;;
11962;SDS011;62678;52.130;5.584;2023-04-15T13:20:52;3.05;;;1.45;;
11962;SDS011;62678;52.130;5.584;2023-04-15T13:23:19;2.50;;;1.33;;
11962;SDS011;62678;52.130;5.584;2023-04-15T13:25:46;2.58;;;1.40;;
11962;SDS011;62678;52.130;5.584;2023-04-15T13:28:13;1.60;;;1.10;;
11962;SDS011;62678;52.130;5.584;2023-04-15T13:30:40;4.57;;;1.30;;
11962;SDS011;62678;52.130;5.584;2023-04-15T13:33:08;3.20;;;1.48;;
11962;SDS011;62678;52.130;5.584;2023-04-15T13:35:36;2.08;;;1.45;;
11962;SDS011;62678;52.130;5.584;2023-04-15T13:38:03;4.53;;;1.42;;
11962;SDS011;62678;52.130;5.584;2023-04-15T13:40:30;2.95;;;1.38;;
11962;SDS011;62678;52.130;5.584;2023-04-15T13:42:57;2.10;;;1.30;;
11962;SDS011;62678;52.130;5.584;2023-04-15T13:45:24;3.20;;;1.45;;
11962;SDS011;62678;52.130;5.584;2023-04-15T13:47:51;4.55;;;1.60;;
11962;SDS011;62678;52.130;5.584;2023-04-15T13:50:18;2.65;;;1.55;;
11962;SDS011;62678;52.130;5.584;2023-04-15T13:52:46;3.53;;;1.70;;
11962;SDS011;62678;52.130;5.584;2023-04-15T13:55:13;2.95;;;1.65;;
11962;SDS011;62678;52.130;5.584;2023-04-15T13:57:40;3.65;;;2.42;;
11962;SDS011;62678;52.130;5.584;2023-04-15T14:00:07;2.65;;;1.38;;
11962;SDS011;62678;52.130;5.584;2023-04-15T14:02:35;3.60;;;3.10;;
11962;SDS011;62678;52.130;5.584;2023-04-15T14:05:01;4.45;;;1.50;;
11962;SDS011;62678;52.130;5.584;2023-04-15T14:07:29;2.40;;;1.35;;
11962;SDS011;62678;52.130;5.584;2023-04-15T14:09:57;2.95;;;1.67;;
11962;SDS011;62678;52.130;5.584;2023-04-15T14:12:24;3.17;;;1.33;;
11962;SDS011;62678;52.130;5.584;2023-04-15T14:14:50;3.05;;;1.50;;
11962;SDS011;62678;52.130;5.584;2023-04-15T14:17:17;3.22;;;1.30;;
11962;SDS011;62678;52.130;5.584;2023-04-15T14:19:44;3.42;;;2.00;;
11962;SDS011;62678;52.130;5.584;2023-04-15T14:22:11;2.47;;;1.50;;
11962;SDS011;62678;52.130;5.584;2023-04-15T14:24:38;2.95;;;1.58;;
11962;SDS011;62678;52.130;5.584;2023-04-15T14:27:06;3.67;;;1.75;;
11962;SDS011;62678;52.130;5.584;2023-04-15T14:29:35;15.10;;;12.68;;
11962;SDS011;62678;52.130;5.584;2023-04-15T14:32:02;5.57;;;2.22;;
11962;SDS011;62678;52.130;5.584;2023-04-15T14:34:29;4.22;;;2.00;;
11962;SDS011;62678;52.130;5.584;2023-04-15T14:36:55;5.32;;;2.38;;
11962;SDS011;62678;52.130;5.584;2023-04-15T14:39:22;10.05;;;3.97;;
11962;SDS011;62678;52.130;5.584;2023-04-15T14:41:49;3.33;;;2.33;;
11962;SDS011;62678;52.130;5.584;2023-04-15T14:44:17;6.53;;;2.47;;